Time;durP1;ratioP1;P1;durP2;ratioP2;P2;SDS_P1;SDS_P2;PMS_P1;PMS_P2;Temp;Humidity;BMP_temperature;BMP_pressure;BME280_temperature;BME280_humidity;BME280_pressure;Samples;Min_cycle;Max_cycle;Signal;HPM_P1;HPM_P2
2021/12/14 05:00:48;;;;;;;38.03;17.08;;;6.00;99.90;;;;;;5699585;23;91768;-75
2021/12/14 05:03:31;;;;;;;38.97;16.77;;;6.00;99.90;;;;;;4899496;28;89798;-75
2021/12/14 05:06:16;;;;;;;38.03;15.95;;;6.00;99.90;;;;;;4898346;28;89425;-75
2021/12/14 05:11:17;;;;;;;38.08;17.02;;;5.90;99.90;;;;;;4897404;28;89239;-75
2021/12/14 05:13:46;;;;;;;33.97;15.20;;;6.00;99.90;;;;;;4899349;28;89366;-75
2021/12/14 05:16:20;;;;;;;35.60;14.80;;;5.90;99.90;;;;;;4899662;28;90579;-76
2021/12/14 05:18:49;;;;;;;35.17;15.52;;;6.00;99.90;;;;;;4899594;28;89419;-76
2021/12/14 05:21:47;;;;;;;35.85;16.33;;;6.00;99.90;;;;;;4898852;28;90014;-76
2021/12/14 05:24:17;;;;;;;33.38;14.88;;;6.00;99.90;;;;;;4899385;28;89255;-76
2021/12/14 05:26:44;;;;;;;35.45;15.05;;;6.00;99.90;;;;;;4899408;28;89516;-76
2021/12/14 05:29:10;;;;;;;34.20;14.38;;;6.00;99.90;;;;;;4899174;28;90234;-76
2021/12/14 05:31:48;;;;;;;34.83;14.70;;;6.00;99.90;;;;;;4898809;28;89390;-76
2021/12/14 05:34:14;;;;;;;30.08;13.90;;;6.00;99.90;;;;;;4898018;28;91497;-76
2021/12/14 05:36:44;;;;;;;32.47;14.25;;;5.90;99.90;;;;;;4899259;28;89534;-78
2021/12/14 05:44:33;;;;;;;32.35;14.93;;;5.90;99.90;;;;;;4917796;28;89434;-77
2021/12/14 05:47:03;;;;;;;38.78;16.30;;;5.90;99.90;;;;;;4904029;28;89507;-77
2021/12/14 05:49:29;;;;;;;39.53;16.77;;;5.90;99.90;;;;;;4902817;28;90020;-77
2021/12/14 05:51:58;;;;;;;41.42;17.75;;;5.90;99.90;;;;;;4902683;28;90063;-77
2021/12/14 05:54:28;;;;;;;45.10;18.52;;;5.90;99.90;;;;;;4903269;28;89361;-77
2021/12/14 05:56:56;;;;;;;43.42;19.15;;;5.90;99.90;;;;;;4902245;28;89162;-77
2021/12/14 05:59:25;;;;;;;44.80;17.27;;;5.90;99.90;;;;;;4902559;28;89045;-77
2021/12/14 06:01:51;;;;;;;39.92;17.33;;;5.90;99.90;;;;;;4901550;28;90178;-76
2021/12/14 06:04:17;;;;;;;40.13;17.15;;;5.90;99.90;;;;;;4900515;28;91081;-77
2021/12/14 06:06:49;;;;;;;41.95;18.13;;;5.90;99.90;;;;;;4901826;28;90515;-77
2021/12/14 06:09:24;;;;;;;46.63;18.73;;;5.90;99.90;;;;;;4900638;28;92947;-77
2021/12/14 06:11:54;;;;;;;42.72;18.92;;;5.90;99.90;;;;;;4902139;28;89807;-77
2021/12/14 06:14:23;;;;;;;44.10;17.92;;;5.90;99.90;;;;;;4901706;28;90193;-77
2021/12/14 06:16:52;;;;;;;49.72;19.67;;;5.80;99.90;;;;;;4902240;28;89138;-77
2021/12/14 06:19:21;;;;;;;49.60;18.67;;;5.90;99.90;;;;;;4901746;28;89903;-77
2021/12/14 06:22:04;;;;;;;51.53;20.05;;;5.80;99.90;;;;;;4901447;28;90602;-77
2021/12/14 06:24:32;;;;;;;47.15;18.85;;;5.90;99.90;;;;;;4900690;28;92823;-77
2021/12/14 06:27:01;;;;;;;52.72;20.38;;;5.80;99.90;;;;;;4900866;28;89346;-77
2021/12/14 06:29:33;;;;;;;52.85;19.27;;;5.80;99.90;;;;;;4901641;28;89344;-77
2021/12/14 06:32:12;;;;;;;46.75;18.25;;;5.80;99.90;;;;;;4900589;28;91053;-77
2021/12/14 06:34:45;;;;;;;47.45;18.73;;;5.80;99.90;;;;;;4901571;28;90652;-77
2021/12/14 06:37:28;;;;;;;48.20;19.67;;;5.90;99.90;;;;;;4901748;28;89181;-77
2021/12/14 06:40:06;;;;;;;49.22;19.50;;;5.80;99.90;;;;;;4901601;28;89309;-77
2021/12/14 06:42:33;;;;;;;44.78;18.13;;;5.90;99.90;;;;;;4901402;28;90699;-77
2021/12/14 06:45:24;;;;;;;42.10;16.70;;;5.90;99.90;;;;;;4900979;28;90259;-77
2021/12/14 06:47:54;;;;;;;44.95;17.35;;;5.80;99.90;;;;;;4901144;28;89298;-77
2021/12/14 06:50:24;;;;;;;44.38;16.85;;;5.80;99.90;;;;;;4899921;28;93645;-77
2021/12/14 06:53:00;;;;;;;47.17;18.10;;;5.80;99.90;;;;;;4901301;28;89042;-77
2021/12/14 06:55:27;;;;;;;47.90;17.55;;;5.80;99.90;;;;;;4899654;28;92867;-77
2021/12/14 06:58:04;;;;;;;46.75;17.30;;;5.70;99.90;;;;;;4900767;28;90210;-77
2021/12/14 07:00:29;;;;;;;48.33;17.83;;;5.80;99.90;;;;;;4900938;28;89263;-77
2021/12/14 07:02:56;;;;;;;46.50;16.85;;;5.80;99.90;;;;;;4901532;28;89208;-77
2021/12/14 07:05:24;;;;;;;47.70;17.35;;;5.80;99.90;;;;;;4900798;28;89648;-77
2021/12/14 07:07:50;;;;;;;43.38;16.20;;;5.80;99.90;;;;;;4901622;28;89294;-77
2021/12/14 07:10:17;;;;;;;41.72;15.25;;;5.80;99.90;;;;;;4899720;28;92943;-76
2021/12/14 07:12:44;;;;;;;36.40;15.30;;;5.80;99.90;;;;;;4901237;28;89297;-76
2021/12/14 07:15:25;;;;;;;36.03;15.05;;;5.80;99.90;;;;;;4899950;28;92519;-76
2021/12/14 07:18:03;;;;;;;33.40;14.18;;;5.80;99.90;;;;;;4901350;28;89247;-77
2021/12/14 07:20:37;;;;;;;34.85;13.85;;;5.90;99.90;;;;;;4899940;28;93208;-77
2021/12/14 07:23:18;;;;;;;34.30;14.35;;;5.90;99.90;;;;;;4900466;28;91651;-76
2021/12/14 07:25:54;;;;;;;39.70;15.32;;;5.80;99.90;;;;;;4899620;28;92218;-77
2021/12/14 07:28:20;;;;;;;37.97;15.23;;;5.80;99.90;;;;;;4901000;28;89463;-76
2021/12/14 07:30:50;;;;;;;37.83;15.48;;;5.90;99.90;;;;;;4900820;28;89930;-76
2021/12/14 07:33:21;;;;;;;34.88;15.65;;;5.90;99.90;;;;;;4900677;28;89187;-76
2021/12/14 07:36:09;;;;;;;41.75;15.93;;;5.80;99.90;;;;;;4900632;28;89327;-76
2021/12/14 07:38:45;;;;;;;37.97;16.40;;;5.90;99.90;;;;;;4900695;28;89248;-76
2021/12/14 07:41:30;;;;;;;38.70;15.10;;;5.90;99.90;;;;;;4901217;28;89654;-76
2021/12/14 07:44:11;;;;;;;36.33;15.00;;;5.90;99.90;;;;;;4900623;28;89182;-76
2021/12/14 07:46:44;;;;;;;52.50;16.30;;;5.90;99.90;;;;;;4900796;28;90021;-76
2021/12/14 07:49:20;;;;;;;29.95;14.35;;;5.90;99.90;;;;;;4900435;28;90617;-76
2021/12/14 07:51:48;;;;;;;34.30;14.63;;;5.90;99.90;;;;;;4900459;28;90258;-76
2021/12/14 07:54:27;;;;;;;28.67;12.43;;;5.90;99.90;;;;;;4900583;28;90014;-76
2021/12/14 07:56:59;;;;;;;30.23;13.50;;;5.90;99.90;;;;;;4900917;28;89776;-75
2021/12/14 07:59:32;;;;;;;31.77;13.95;;;5.90;99.90;;;;;;4901309;28;89163;-75
2021/12/14 08:02:22;;;;;;;30.77;13.35;;;5.90;99.90;;;;;;4899848;28;89166;-75
2021/12/14 08:04:57;;;;;;;24.42;12.35;;;5.90;99.90;;;;;;4900315;28;90305;-75
2021/12/14 08:07:38;;;;;;;27.83;13.20;;;5.90;99.90;;;;;;4900763;28;89001;-75
2021/12/14 08:10:16;;;;;;;27.35;12.73;;;5.80;99.90;;;;;;4899686;28;89383;-75
2021/12/14 08:12:52;;;;;;;25.73;12.88;;;5.90;99.90;;;;;;4900577;28;89205;-75
2021/12/14 08:15:39;;;;;;;26.27;12.57;;;5.90;99.90;;;;;;4897947;28;92510;-75
2021/12/14 08:18:21;;;;;;;26.33;12.20;;;5.90;99.90;;;;;;4900054;28;90444;-75
2021/12/14 08:20:57;;;;;;;29.33;12.68;;;6.00;99.90;;;;;;4900516;28;89271;-75
2021/12/14 08:23:29;;;;;;;22.85;12.68;;;6.10;99.90;;;;;;4899985;28;90242;-75
2021/12/14 08:26:08;;;;;;;25.35;12.40;;;6.00;99.90;;;;;;4899928;28;89275;-75
2021/12/14 08:28:51;;;;;;;25.80;12.27;;;6.00;99.90;;;;;;4900184;28;89987;-75
2021/12/14 08:31:18;;;;;;;28.05;12.73;;;6.00;99.90;;;;;;4900120;28;89324;-75
2021/12/14 08:33:44;;;;;;;26.10;12.82;;;6.00;99.90;;;;;;4898527;28;92874;-75
2021/12/14 08:36:15;;;;;;;25.27;11.80;;;6.00;99.90;;;;;;4899841;28;90124;-75
2021/12/14 08:38:40;;;;;;;24.83;12.65;;;6.00;99.90;;;;;;4899937;28;89199;-75
2021/12/14 08:41:18;;;;;;;26.20;12.30;;;6.00;99.90;;;;;;4899376;28;90342;-75
2021/12/14 08:43:50;;;;;;;28.58;13.57;;;6.00;99.90;;;;;;4898341;28;91638;-75
2021/12/14 08:46:23;;;;;;;26.95;13.35;;;6.00;99.90;;;;;;4899773;28;89990;-75
2021/12/14 08:49:05;;;;;;;27.63;13.55;;;6.00;99.90;;;;;;4899819;28;89724;-75
2021/12/14 08:51:36;;;;;;;28.95;13.27;;;6.10;99.90;;;;;;4910988;28;89175;-74
2021/12/14 08:54:16;;;;;;;26.10;13.05;;;6.10;99.90;;;;;;4918791;28;89260;-75
2021/12/14 08:56:48;;;;;;;25.40;12.30;;;6.10;99.90;;;;;;4901543;28;89331;-75
2021/12/14 08:59:14;;;;;;;27.48;13.00;;;6.20;99.90;;;;;;4900203;28;89107;-75
2021/12/14 09:01:42;;;;;;;26.85;12.90;;;6.20;99.90;;;;;;4899197;28;89247;-75
2021/12/14 09:04:15;;;;;;;25.80;12.13;;;6.20;99.90;;;;;;4897743;28;91012;-75
2021/12/14 09:06:43;;;;;;;29.92;12.40;;;6.20;99.90;;;;;;4899182;28;91001;-75
2021/12/14 09:09:13;;;;;;;25.45;12.77;;;6.30;99.90;;;;;;4899310;28;89535;-75
2021/12/14 09:11:41;;;;;;;27.60;13.90;;;6.30;99.90;;;;;;4898203;28;89509;-75
2021/12/14 09:14:10;;;;;;;25.35;13.02;;;6.40;99.90;;;;;;4899211;28;89585;-75
2021/12/14 09:16:37;;;;;;;25.98;13.10;;;6.40;99.90;;;;;;4899008;28;89692;-75
2021/12/14 09:19:15;;;;;;;22.83;12.07;;;6.50;99.90;;;;;;4897922;28;89326;-75
2021/12/14 09:21:45;;;;;;;25.35;13.00;;;6.50;99.90;;;;;;4899095;28;89266;-75
2021/12/14 09:24:15;;;;;;;22.10;11.73;;;6.60;99.90;;;;;;4902173;28;89796;-75
2021/12/14 09:26:46;;;;;;;21.45;11.63;;;6.60;99.90;;;;;;4901069;28;93148;-75
2021/12/14 09:29:15;;;;;;;22.60;11.63;;;6.70;99.90;;;;;;4902315;28;90299;-75
2021/12/14 09:31:43;;;;;;;23.00;12.05;;;6.70;99.90;;;;;;4902054;28;90498;-75
2021/12/14 09:34:11;;;;;;;20.25;11.38;;;6.60;99.90;;;;;;4902543;28;89491;-75
2021/12/14 09:36:39;;;;;;;20.80;11.13;;;6.60;99.90;;;;;;4902475;28;90403;-75
2021/12/14 09:39:14;;;;;;;18.02;10.63;;;6.70;99.90;;;;;;4902301;28;90262;-75
2021/12/14 09:41:42;;;;;;;19.15;10.43;;;6.70;99.90;;;;;;4901448;28;90568;-75
2021/12/14 09:44:10;;;;;;;22.80;11.45;;;6.70;99.90;;;;;;4902026;28;89901;-76
2021/12/14 09:46:37;;;;;;;17.60;10.13;;;6.60;99.90;;;;;;4902796;28;89085;-76
2021/12/14 09:49:06;;;;;;;22.15;10.95;;;6.60;99.90;;;;;;4902962;28;89077;-74
2021/12/14 09:51:36;;;;;;;21.48;10.25;;;6.70;99.90;;;;;;4900845;28;89405;-78
2021/12/14 09:54:06;;;;;;;19.42;10.35;;;6.70;99.90;;;;;;4902331;28;89305;-76
2021/12/14 09:56:39;;;;;;;23.00;11.25;;;6.70;99.90;;;;;;4901859;28;90200;-75
2021/12/14 09:59:08;;;;;;;19.98;11.73;;;6.80;99.90;;;;;;4900941;28;93145;-75
2021/12/14 10:01:52;;;;;;;23.05;11.57;;;6.70;99.90;;;;;;4901699;28;89364;-75
2021/12/14 10:04:22;;;;;;;21.98;11.35;;;6.70;99.90;;;;;;4902190;28;89927;-76
2021/12/14 10:06:49;;;;;;;22.33;11.63;;;6.80;99.90;;;;;;4902417;28;89297;-79
2021/12/14 10:09:20;;;;;;;23.58;12.10;;;6.80;99.90;;;;;;4900744;28;92808;-75
2021/12/14 10:14:28;;;;;;;20.90;11.38;;;6.80;99.90;;;;;;4901441;28;89707;-80
2021/12/14 10:16:54;;;;;;;20.13;11.45;;;6.90;99.90;;;;;;4900683;28;93064;-78
2021/12/14 10:19:25;;;;;;;21.38;11.35;;;7.00;99.90;;;;;;4902071;28;89771;-77
2021/12/14 10:21:58;;;;;;;21.10;11.80;;;7.10;99.90;;;;;;4900141;28;90816;-77
2021/12/14 10:24:25;;;;;;;19.10;11.25;;;7.20;99.90;;;;;;4901869;28;89250;-78
2021/12/14 10:26:55;;;;;;;19.42;11.38;;;7.20;99.90;;;;;;4901909;28;90669;-77
2021/12/14 10:29:23;;;;;;;20.33;11.60;;;7.30;99.90;;;;;;4900456;28;91384;-77
2021/12/14 10:32:03;;;;;;;19.23;11.05;;;7.40;99.90;;;;;;4901702;28;89408;-77
2021/12/14 10:34:32;;;;;;;18.83;10.98;;;7.40;99.90;;;;;;4899992;28;92043;-77
2021/12/14 10:37:08;;;;;;;17.73;10.73;;;7.30;99.90;;;;;;4894913;28;89931;-76
2021/12/14 10:39:41;;;;;;;17.70;10.85;;;7.40;99.90;;;;;;4917764;28;89021;-76
2021/12/14 10:44:58;;;;;;;19.95;11.32;;;7.50;99.90;;;;;;4882724;28;89443;-76
2021/12/14 10:47:29;;;;;;;19.95;11.30;;;7.50;99.90;;;;;;4891769;28;90958;-76
2021/12/14 10:49:56;;;;;;;20.85;11.57;;;7.40;99.90;;;;;;4900106;28;94296;-76
2021/12/14 10:52:25;;;;;;;19.17;11.18;;;7.50;99.90;;;;;;4900072;28;89420;-77
2021/12/14 10:54:58;;;;;;;20.48;12.25;;;7.60;99.90;;;;;;4901076;28;92857;-77
2021/12/14 10:57:28;;;;;;;19.88;11.98;;;7.60;99.90;;;;;;4901397;28;90378;-76
2021/12/14 10:59:56;;;;;;;18.80;10.77;;;7.60;99.90;;;;;;4901436;28;90159;-77
2021/12/14 11:02:24;;;;;;;17.70;11.05;;;7.70;99.90;;;;;;4901417;28;89301;-76
2021/12/14 11:04:58;;;;;;;23.25;13.52;;;7.80;99.90;;;;;;4901464;28;89013;-78
2021/12/14 11:07:37;;;;;;;25.85;13.63;;;7.80;99.90;;;;;;4901169;28;89936;-76
2021/12/14 11:10:12;;;;;;;23.50;12.98;;;7.80;99.90;;;;;;4887854;28;89666;-76
2021/12/14 11:12:42;;;;;;;25.65;12.93;;;7.90;99.90;;;;;;4881839;28;90147;-76
2021/12/14 11:15:16;;;;;;;21.55;13.25;;;7.80;99.90;;;;;;4882174;28;90168;-77
2021/12/14 11:20:49;;;;;;;22.25;12.80;;;7.60;99.90;;;;;;4882266;28;89375;-76
2021/12/14 11:23:17;;;;;;;23.55;13.27;;;7.70;99.90;;;;;;4894594;28;89248;-76
2021/12/14 11:25:49;;;;;;;24.38;13.35;;;7.70;99.90;;;;;;4920018;28;90270;-76
2021/12/14 11:28:29;;;;;;;24.02;14.02;;;7.70;99.90;;;;;;4907337;28;89350;-77
2021/12/14 11:31:01;;;;;;;27.42;14.18;;;7.70;99.90;;;;;;4901246;28;89048;-76
2021/12/14 11:33:35;;;;;;;21.98;12.93;;;7.60;99.90;;;;;;4901257;28;89528;-77
2021/12/14 11:36:11;;;;;;;25.80;13.60;;;7.50;99.90;;;;;;4900774;28;90166;-76
2021/12/14 11:38:47;;;;;;;25.30;14.32;;;7.50;99.90;;;;;;4900492;28;90954;-76
2021/12/14 11:41:34;;;;;;;27.98;15.00;;;7.60;99.90;;;;;;4900700;28;89740;-76
2021/12/14 11:44:11;;;;;;;26.77;13.70;;;7.70;99.90;;;;;;4901024;28;89360;-77
2021/12/14 11:46:56;;;;;;;28.42;14.88;;;7.70;99.90;;;;;;4899700;28;90003;-77
2021/12/14 11:49:26;;;;;;;25.67;14.07;;;7.70;99.90;;;;;;4893048;28;89419;-77
2021/12/14 11:51:52;;;;;;;25.52;14.35;;;7.70;99.90;;;;;;4900356;28;89295;-77
2021/12/14 11:54:20;;;;;;;25.83;15.00;;;7.60;99.90;;;;;;4900613;28;89296;-77
2021/12/14 11:56:49;;;;;;;31.50;15.82;;;7.60;99.90;;;;;;4900767;28;89747;-77
2021/12/14 11:59:16;;;;;;;25.70;15.68;;;7.50;99.90;;;;;;4900471;28;89223;-77
2021/12/14 12:01:52;;;;;;;29.63;15.05;;;7.40;99.90;;;;;;4900200;28;89458;-77
2021/12/14 12:04:29;;;;;;;26.15;14.85;;;7.40;99.90;;;;;;4909764;28;90202;-76
2021/12/14 12:09:41;;;;;;;28.48;16.13;;;7.30;99.90;;;;;;4889072;28;90209;-76
2021/12/14 12:12:06;;;;;;;33.70;18.15;;;7.30;99.90;;;;;;4898388;28;92409;-76
2021/12/14 12:14:38;;;;;;;34.22;17.80;;;7.20;99.90;;;;;;4886731;28;90420;-77
2021/12/14 12:17:32;;;;;;;34.22;18.90;;;7.10;99.90;;;;;;4919119;28;90901;-77
2021/12/14 12:20:24;;;;;;;33.70;18.80;;;7.10;99.90;;;;;;4919135;28;93808;-77
2021/12/14 12:23:10;;;;;;;35.53;18.50;;;7.10;99.90;;;;;;4920049;28;90286;-76
2021/12/14 12:25:47;;;;;;;37.70;18.25;;;7.10;99.90;;;;;;4919432;28;89334;-76
2021/12/14 12:28:17;;;;;;;36.60;19.02;;;7.10;99.90;;;;;;4919246;28;90285;-76
2021/12/14 12:30:46;;;;;;;31.55;18.15;;;7.00;99.90;;;;;;4918522;28;91413;-76
2021/12/14 12:33:18;;;;;;;32.95;17.80;;;6.90;99.90;;;;;;4917714;28;92788;-76
2021/12/14 12:35:56;;;;;;;31.13;18.25;;;6.90;99.90;;;;;;4918792;28;89212;-76
2021/12/14 12:38:30;;;;;;;30.30;18.30;;;7.00;99.90;;;;;;4900038;28;89326;-76
2021/12/14 12:41:01;;;;;;;30.45;17.00;;;6.90;99.90;;;;;;4899638;28;89971;-76
2021/12/14 12:43:47;;;;;;;29.35;17.90;;;6.90;99.90;;;;;;4898599;28;92459;-76
2021/12/14 12:46:28;;;;;;;28.48;17.02;;;6.90;99.90;;;;;;4900062;28;89368;-75
2021/12/14 12:48:59;;;;;;;33.13;18.27;;;6.90;99.90;;;;;;4881004;28;90135;-76
2021/12/14 12:51:42;;;;;;;30.45;17.70;;;6.90;99.90;;;;;;4879365;28;89953;-74
2021/12/14 12:54:21;;;;;;;29.73;18.58;;;6.80;99.90;;;;;;4879314;28;90201;-76
2021/12/14 12:57:10;;;;;;;32.25;18.05;;;6.90;99.90;;;;;;4880101;28;90135;-75
2021/12/14 12:59:54;;;;;;;33.70;18.85;;;6.90;99.90;;;;;;4880079;28;89543;-75
2021/12/14 13:02:24;;;;;;;33.17;18.90;;;7.00;99.90;;;;;;4880502;28;90588;-76
2021/12/14 13:04:54;;;;;;;33.22;18.58;;;7.00;99.90;;;;;;4880043;28;91732;-78
2021/12/14 13:07:30;;;;;;;33.75;18.70;;;6.90;99.90;;;;;;4880517;28;89265;-77
2021/12/14 13:10:23;;;;;;;31.42;17.88;;;6.80;99.90;;;;;;4880688;28;89370;-77
2021/12/14 13:13:04;;;;;;;35.10;19.90;;;6.80;99.90;;;;;;4870820;28;89265;-76
2021/12/14 13:15:42;;;;;;;35.38;19.13;;;6.70;99.90;;;;;;4895146;28;93216;-77
2021/12/14 13:18:28;;;;;;;36.95;20.80;;;6.70;99.90;;;;;;4880676;28;89656;-82
2021/12/14 13:21:00;;;;;;;32.90;18.58;;;6.70;99.90;;;;;;4881784;28;89391;-75
2021/12/14 13:23:51;;;;;;;34.67;18.90;;;6.60;99.90;;;;;;4879615;28;90204;-77
2021/12/14 13:26:25;;;;;;;34.50;19.80;;;6.60;99.90;;;;;;4878350;28;91011;-76
2021/12/14 13:28:53;;;;;;;38.00;19.27;;;6.60;99.90;;;;;;4879433;28;89331;-77
2021/12/14 13:31:35;;;;;;;31.77;18.70;;;6.60;99.90;;;;;;4892776;28;92620;-76
2021/12/14 13:34:06;;;;;;;34.85;19.42;;;6.50;99.90;;;;;;4898521;28;89363;-75
2021/12/14 13:36:32;;;;;;;36.88;20.52;;;6.50;99.90;;;;;;4898227;28;90329;-75
2021/12/14 13:38:58;;;;;;;37.13;20.73;;;6.50;99.90;;;;;;4884482;28;89651;-78
2021/12/14 13:41:41;;;;;;;40.17;22.08;;;6.50;99.90;;;;;;4882212;28;88988;-77
2021/12/14 13:44:07;;;;;;;37.10;21.15;;;6.40;99.90;;;;;;4880551;28;89554;-77
2021/12/14 13:46:33;;;;;;;36.92;20.25;;;6.50;99.90;;;;;;4880915;28;89934;-79
2021/12/14 13:48:58;;;;;;;41.35;20.80;;;6.50;99.90;;;;;;4881150;28;90145;-78
2021/12/14 13:51:26;;;;;;;39.95;21.48;;;6.50;99.90;;;;;;4891363;28;89399;-77
2021/12/14 13:53:55;;;;;;;41.70;21.58;;;6.50;99.90;;;;;;4881764;28;90151;-77
2021/12/14 13:56:28;;;;;;;44.08;24.13;;;6.50;99.90;;;;;;4907815;28;89269;-79
2021/12/14 13:58:56;;;;;;;38.40;21.50;;;6.50;99.90;;;;;;4899946;28;89572;-78
2021/12/14 14:01:25;;;;;;;42.00;21.60;;;6.60;99.90;;;;;;4898063;28;90263;-77
2021/12/14 14:03:59;;;;;;;42.70;21.27;;;6.60;99.90;;;;;;4896176;28;90067;-78
2021/12/14 14:06:25;;;;;;;41.25;21.02;;;6.50;99.90;;;;;;4899259;28;89716;-77
2021/12/14 14:08:57;;;;;;;43.20;21.30;;;6.50;99.90;;;;;;4899725;28;89390;-77
2021/12/14 14:11:26;;;;;;;37.92;19.83;;;6.50;99.90;;;;;;4915644;28;90258;-77
2021/12/14 14:13:57;;;;;;;37.17;20.30;;;6.50;99.90;;;;;;4919495;28;93571;-78
2021/12/14 14:16:23;;;;;;;39.00;20.55;;;6.40;99.90;;;;;;4920830;28;90661;-78
2021/12/14 14:18:52;;;;;;;41.50;21.98;;;6.40;99.90;;;;;;4921198;28;89358;-79
2021/12/14 14:21:29;;;;;;;43.47;21.35;;;6.30;99.90;;;;;;4920428;28;89852;-79
2021/12/14 14:23:54;;;;;;;41.35;20.83;;;6.20;99.90;;;;;;4919724;28;92930;-79
2021/12/14 14:26:42;;;;;;;46.58;22.63;;;6.20;99.90;;;;;;4919307;28;91745;-79
2021/12/14 14:29:11;;;;;;;43.95;21.95;;;6.20;99.90;;;;;;4919306;28;89248;-79
2021/12/14 14:31:45;;;;;;;40.75;21.50;;;6.20;99.90;;;;;;4921121;28;91037;-79
2021/12/14 14:34:34;;;;;;;43.10;21.88;;;6.30;99.90;;;;;;4921400;28;89283;-79
2021/12/14 14:37:02;;;;;;;44.60;22.50;;;6.20;99.90;;;;;;4920255;28;92023;-79
2021/12/14 14:39:39;;;;;;;47.20;23.42;;;6.20;99.90;;;;;;4921230;28;90626;-79
2021/12/14 14:42:11;;;;;;;39.10;20.77;;;6.20;99.90;;;;;;4919574;28;93098;-79
2021/12/14 14:44:43;;;;;;;40.33;21.00;;;6.20;99.90;;;;;;4919692;28;92804;-79
2021/12/14 14:47:34;;;;;;;41.67;22.02;;;6.30;99.90;;;;;;4919797;28;92875;-79
2021/12/14 14:50:15;;;;;;;46.22;22.45;;;6.30;99.90;;;;;;4920375;28;89667;-79
2021/12/14 14:52:49;;;;;;;43.70;22.60;;;6.30;99.90;;;;;;4921074;28;89162;-79
2021/12/14 14:55:20;;;;;;;42.75;23.17;;;6.40;99.90;;;;;;4919659;28;91962;-79
2021/12/14 14:58:00;;;;;;;43.75;22.83;;;6.30;99.90;;;;;;4921474;28;89122;-79
2021/12/14 15:00:53;;;;;;;44.65;22.90;;;6.30;99.90;;;;;;4921078;28;89187;-79
2021/12/14 15:03:27;;;;;;;45.50;21.85;;;6.30;99.90;;;;;;4921271;28;89358;-79
2021/12/14 15:06:04;;;;;;;45.05;21.50;;;6.20;99.90;;;;;;4918860;28;94425;-79
2021/12/14 15:08:46;;;;;;;40.58;21.25;;;6.30;99.90;;;;;;4920988;28;91209;-79
2021/12/14 15:11:14;;;;;;;45.60;23.88;;;6.30;99.90;;;;;;4921664;28;89576;-79
2021/12/14 15:14:00;;;;;;;45.88;23.15;;;6.20;99.90;;;;;;4919743;28;91484;-79
2021/12/14 15:16:25;;;;;;;43.90;21.48;;;6.20;99.90;;;;;;4920450;28;89875;-78
2021/12/14 15:18:53;;;;;;;46.80;22.63;;;6.30;99.90;;;;;;4915762;28;89326;-79
2021/12/14 15:21:48;;;;;;;47.63;22.75;;;6.20;99.90;;;;;;4927830;28;89356;-79
2021/12/14 15:24:32;;;;;;;48.85;24.70;;;6.20;99.90;;;;;;4945787;28;89187;-80
2021/12/14 15:27:09;;;;;;;49.63;23.40;;;6.10;99.90;;;;;;4919424;28;91283;-81
2021/12/14 15:29:38;;;;;;;46.53;22.70;;;6.10;99.90;;;;;;4904668;28;89425;-78
2021/12/14 15:32:13;;;;;;;46.83;23.50;;;6.10;99.90;;;;;;4907063;28;90213;-79
2021/12/14 15:34:51;;;;;;;47.45;23.98;;;6.10;99.90;;;;;;4904863;28;92492;-77
2021/12/14 15:37:59;;;;;;;53.25;24.73;;;6.10;99.90;;;;;;4905133;28;89267;-79
2021/12/14 15:40:25;;;;;;;49.97;24.27;;;6.10;99.90;;;;;;4826493;29;94342;-78
2021/12/14 15:42:56;;;;;;;56.15;26.50;;;6.10;99.90;;;;;;4891466;28;89410;-78
2021/12/14 15:45:43;;;;;;;49.15;24.83;;;6.10;99.90;;;;;;4900123;28;93283;-78
2021/12/14 15:48:17;;;;;;;49.63;24.55;;;6.10;99.90;;;;;;4901336;28;90343;-78
2021/12/14 15:51:00;;;;;;;51.75;25.17;;;6.10;99.90;;;;;;4900002;28;91871;-83
2021/12/14 15:53:40;;;;;;;47.33;24.25;;;6.10;99.90;;;;;;4912936;28;89346;-76
2021/12/14 15:56:09;;;;;;;51.88;25.30;;;6.10;99.90;;;;;;4904593;28;89622;-78
2021/12/14 15:58:37;;;;;;;56.50;25.88;;;6.10;99.90;;;;;;4912641;28;90572;-78
2021/12/14 16:01:14;;;;;;;54.05;25.52;;;6.10;99.90;;;;;;4902438;28;93643;-78
2021/12/14 16:03:41;;;;;;;52.47;25.05;;;6.10;99.90;;;;;;4895260;28;89392;-78
2021/12/14 16:06:07;;;;;;;54.08;25.98;;;6.10;99.90;;;;;;4894966;28;89182;-78
2021/12/14 16:08:35;;;;;;;52.55;24.23;;;6.10;99.90;;;;;;4895840;28;90437;-78
2021/12/14 16:11:33;;;;;;;52.72;25.27;;;6.10;99.90;;;;;;4896591;28;91901;-75
2021/12/14 16:16:51;;;;;;;53.55;23.88;;;6.10;99.90;;;;;;4897346;28;89341;-79
2021/12/14 16:19:25;;;;;;;56.50;24.05;;;6.10;99.90;;;;;;4917413;28;90130;-79
2021/12/14 16:21:51;;;;;;;55.60;25.27;;;6.00;99.90;;;;;;4902587;28;92812;-79
2021/12/14 16:24:17;;;;;;;49.97;23.85;;;6.10;99.90;;;;;;4911462;28;90206;-79
2021/12/14 16:26:42;;;;;;;54.28;24.35;;;6.10;99.90;;;;;;4900710;28;90398;-79
2021/12/14 16:29:09;;;;;;;51.85;25.05;;;6.10;99.90;;;;;;4900407;28;92958;-79
2021/12/14 16:31:45;;;;;;;52.67;24.45;;;6.10;99.90;;;;;;4918806;28;90127;-79
2021/12/14 16:34:18;;;;;;;53.20;24.40;;;6.10;99.90;;;;;;4905921;28;89288;-76
2021/12/14 16:36:52;;;;;;;54.50;24.70;;;6.10;99.90;;;;;;4902023;28;89749;-79
2021/12/14 16:39:29;;;;;;;55.55;25.13;;;6.10;99.90;;;;;;4905564;28;89342;-79
2021/12/14 16:42:03;;;;;;;54.30;25.13;;;6.20;99.90;;;;;;4889286;28;89216;-79
2021/12/14 16:44:37;;;;;;;51.60;24.70;;;6.10;99.90;;;;;;4910557;28;89185;-79
2021/12/14 16:47:09;;;;;;;54.05;25.60;;;6.10;99.90;;;;;;4899062;28;89558;-79
2021/12/14 16:49:38;;;;;;;51.97;25.38;;;6.10;99.90;;;;;;4900593;28;90211;-79
2021/12/14 16:52:11;;;;;;;53.25;24.40;;;6.10;99.90;;;;;;4912899;28;92798;-80
2021/12/14 16:54:41;;;;;;;53.92;24.50;;;6.10;99.90;;;;;;4904197;28;89274;-79
2021/12/14 16:57:11;;;;;;;51.28;25.42;;;6.10;99.90;;;;;;4910817;28;91816;-80
2021/12/14 16:59:39;;;;;;;51.90;23.65;;;6.10;99.90;;;;;;4898696;28;90095;-79
2021/12/14 17:02:15;;;;;;;56.10;25.10;;;6.10;99.90;;;;;;4915029;28;91871;-80
2021/12/14 17:04:44;;;;;;;52.20;24.80;;;6.00;99.90;;;;;;4895134;28;89299;-79
2021/12/14 17:07:15;;;;;;;53.88;24.05;;;6.00;99.90;;;;;;4912314;28;92851;-80
2021/12/14 17:09:41;;;;;;;54.70;25.13;;;6.00;99.90;;;;;;4907237;28;91261;-80
2021/12/14 17:12:13;;;;;;;53.40;23.67;;;6.00;99.90;;;;;;4918304;28;89877;-80
2021/12/14 17:14:43;;;;;;;51.53;24.90;;;6.00;99.90;;;;;;4913456;28;90308;-80
2021/12/14 17:17:10;;;;;;;51.80;23.85;;;6.00;99.90;;;;;;4923091;28;90544;-80
2021/12/14 17:19:40;;;;;;;51.90;23.55;;;6.00;99.90;;;;;;4909335;28;89611;-79
2021/12/14 17:22:13;;;;;;;54.42;24.88;;;6.00;99.90;;;;;;4914849;28;90263;-77
2021/12/14 17:24:45;;;;;;;53.58;24.40;;;6.00;99.90;;;;;;4910690;28;89365;-77
2021/12/14 17:27:23;;;;;;;57.45;25.35;;;6.00;99.90;;;;;;4910326;28;90236;-79
2021/12/14 17:29:51;;;;;;;60.95;26.13;;;6.00;99.90;;;;;;4920251;28;89421;-80
2021/12/14 17:32:23;;;;;;;54.65;24.85;;;6.00;99.90;;;;;;4896900;28;89557;-78
2021/12/14 17:34:52;;;;;;;60.10;26.75;;;6.00;99.90;;;;;;4889190;28;89502;-79
2021/12/14 17:37:34;;;;;;;60.00;26.15;;;6.00;99.90;;;;;;4897239;28;90284;-78
2021/12/14 17:40:06;;;;;;;60.92;26.60;;;6.00;99.90;;;;;;4896695;28;90358;-79
2021/12/14 17:42:34;;;;;;;63.33;27.55;;;6.00;99.90;;;;;;4896437;28;94015;-79
2021/12/14 17:45:31;;;;;;;54.13;24.85;;;6.00;99.90;;;;;;4896230;28;89420;-80
2021/12/14 17:47:58;;;;;;;58.67;24.88;;;6.00;99.90;;;;;;4881194;28;89264;-80
2021/12/14 17:50:37;;;;;;;58.90;26.77;;;6.00;99.90;;;;;;4881674;28;91942;-79
2021/12/14 17:53:06;;;;;;;60.40;25.73;;;5.90;99.90;;;;;;4883297;28;90274;-80
2021/12/14 17:55:35;;;;;;;62.95;27.80;;;6.00;99.90;;;;;;4912844;28;89286;-79
2021/12/14 17:58:09;;;;;;;57.05;26.63;;;5.90;99.90;;;;;;4888871;28;89825;-79
2021/12/14 18:00:46;;;;;;;57.03;26.35;;;6.00;99.90;;;;;;4881497;28;92558;-80
2021/12/14 18:03:30;;;;;;;60.40;26.08;;;5.90;99.90;;;;;;4882337;28;92606;-79
2021/12/14 18:06:00;;;;;;;60.58;26.90;;;5.90;99.90;;;;;;4884567;28;90184;-79
2021/12/14 18:08:29;;;;;;;61.60;27.15;;;5.90;99.90;;;;;;4887711;28;93251;-79
2021/12/14 18:11:12;;;;;;;67.22;28.25;;;5.80;99.90;;;;;;4892563;28;92532;-79
2021/12/14 18:13:44;;;;;;;60.90;27.42;;;5.80;99.90;;;;;;4892562;28;91491;-79
2021/12/14 18:16:17;;;;;;;70.32;29.85;;;5.80;99.90;;;;;;4892827;28;89366;-79
2021/12/14 18:19:04;;;;;;;69.93;28.05;;;5.80;99.90;;;;;;4887830;28;89491;-79
2021/12/14 18:21:44;;;;;;;63.10;28.48;;;5.80;99.90;;;;;;4894377;28;93198;-79
2021/12/14 18:24:27;;;;;;;64.45;28.70;;;5.90;99.90;;;;;;4902604;28;91709;-79
2021/12/14 18:27:01;;;;;;;61.95;27.25;;;5.90;99.90;;;;;;4885689;28;89688;-79
2021/12/14 18:29:35;;;;;;;65.15;27.40;;;5.90;99.90;;;;;;4885142;28;90251;-78